Pagina principale
METAR-TAF:

METAR-TAF

Aeroporti :

Aeroporto militare Cameri

Novara, Italia

latitudine: 45-31N, longitudine: 008-40E, altezza: 178 m

Osservazione

Il bollettino è stato emesso 1 ora e 24 minuti fa, alle 12:55 UTC
Temperature 10°C
Umidità 62%
Pressione 1015 hPa
Visibilità 10 km o più
nessuna nube inferiore a 1500 m e nessun cumulonembo

METAR: LIMN 061255Z /////KT CAVOK 10/03 Q1015 RMK SCT SCT200 VIS MIN 9999 BLU

Ora: 15:19 (14:19 UTC)

Previsione

Il bollettino è stato emesso 3 ore e 19 minuti fa, alle 11:00 UTC
Previsione valida dal 06 alle 12 UTC al 06 alle 21 UTC
Vento 3 kt da direzioni variabili
Visibilità 10 km o più
nessuna nube inferiore a 1500 m e nessun cumulonembo

TAF: LIMN 061100Z 0612/0621 VRB03KT CAVOK

Osservazioni e previsioni meteorologiche di più di 4000 aeroporti (messaggi METAR e TAF).

Le stazioni disponibili sono rappresentate dai dischi gialli e rossi sulla carta.

Puntare il mouse per vedere il nome della stazione.

Clicca sopra per visualizzare le osservazioni e previsioni meteorologiche.

Per cambiare la mappa : fare clic sui pulsanti verdi con una croce nera per ingrandire, il pulsante verde con un trattino per diminuire, o sulla freccia verde per le mappe adiacenti.


METAR-TAF: